Soaring Guidance
Issued by NWS Reno, NV

Home | Current Version | Previous Version | Text Only | Print | Product List | Glossary On
Versions: 1 2 3 4 5 6
000
UXUS97 KREV 011350
SRGREV

SOARING FORECAST
NATIONAL WEATHER SERVICE - RENO NV
700 AM PDT SUN MAY 1 2016

THIS SOARING FORECAST IS FOR THE EASTERN SIERRA AND WESTERN NEVADA
WITH SPECIFIC INDICES FOR THE GREATER RENO AREA.

THIS FORECAST IS PREPARED DAILY BY 700 AM AND IS NOT UPDATED.

FOR CURRENT FLIGHT CONDITIONS...FORECASTS...AND ADVISORIES...ACCESS
YOUR LOCAL BRIEFING OUTLET OR FLIGHT SERVICE STATION.

*******************************************************************
FORECASTED LOCAL INDICES FOR RENO:        TODAY     YESTERDAY
FORECASTED MAX TEMP AT RENO (DEG F).....     69          60
FORECASTED TRIGGER TEMPERATURE (DEG F)..     52          46
   EXCEEDED YESTERDAY BY 955 AM PDT
FORECASTED MAXIMUM ALTITUDE (FT MSL)....  16400       14000
FORECASTED SOARING INDEX (FPM)..........    942         720
FORECASTED K-INDEX.........VALID 18Z....     23          23
FORECASTED K-INDEX.........VALID 00Z....     26          25
FORECASTED LIFTED INDEX....VALID 18Z....      5           5
FORECASTED LIFTED INDEX....VALID 00Z....      2           4

AFTERNOON WINDS ALOFT FORECAST
MSL (FT) WIND/TEMP
9000  0709/+04
10000 0709/+01
12000 0808/-04
14000 0810/-09
16000 0913/-14
18000 0917/-19
24000 0816/-30
30000 1037/-47
34000 0815/-53
39000 3316/-54

SLIDE MOUNTAIN DATA:
     DATE       TIME     TEMP  DEWPT   RH         WIND (MPH)
                        (F)   (F)           | DIR  SPEED GUST
2016-05-01    05:50      26    26     99    | 092   27   32
2016-05-01    05:30      26    26     99    | 087   30   37
2016-05-01    05:20      26    26     99    | 087   28   38
2016-05-01    05:00      26    26     98    | 091   33   41

RENO TAF FORECAST:
KRNO 011120Z 0112/0212 VRB04KT P6SM FEW090
     FM011900 11008KT P6SM SCT070
     FM020300 VRB03KT P6SM FEW080

CARSON CITY TAF FORECAST:
KCXP 011120Z 0112/0212 01008KT P6SM FEW080
     FM011800 07010G19KT P6SM SCT060
     FM020300 VRB04KT P6SM FEW070

OUTLOOK FOR THE RENO-CARSON CITY-MINDEN AREA:
.MONDAY...PARTLY CLOUDY. SLIGHT CHANCE OF SHOWERS AND
THUNDERSTORMS IN THE AFTERNOON. HIGHS 69 TO 74. LIGHT WINDS.

SUNRISE AND SUNSET
MAY  1 2016...........SUNRISE   559 AM PDT   SUNSET   753 PM PDT
MAY  2 2016...........SUNRISE   558 AM PDT   SUNSET   754 PM PDT



USA.gov is the U.S. government's official web portal to all federal, state and local government web resources and services.